Time;durP1;ratioP1;P1;durP2;ratioP2;P2;SDS_P1;SDS_P2;PMS_P1;PMS_P2;Temp;Humidity;BMP_temperature;BMP_pressure;BME280_temperature;BME280_humidity;BME280_pressure;Samples;Min_cycle;Max_cycle;Signal;HPM_P1;HPM_P2
2021/10/31 00:01:18;;;;;;;5.18;2.10;;;;;;;14.26;94.87;99860.88;5104712;28;20409;-69
2021/10/31 00:03:44;;;;;;;9.73;2.95;;;;;;;14.27;94.47;99869.75;5110020;28;20040;-68
2021/10/31 00:06:10;;;;;;;5.60;2.38;;;;;;;14.20;94.80;99861.69;5111404;28;20035;-68
2021/10/31 00:08:36;;;;;;;6.78;2.67;;;;;;;14.19;95.15;99866.34;5112658;28;20756;-69
2021/10/31 00:11:02;;;;;;;8.80;2.42;;;;;;;14.23;94.95;99853.53;5101832;28;20055;-68
2021/10/31 00:13:28;;;;;;;5.45;2.15;;;;;;;14.25;94.76;99864.75;5112707;28;20028;-68
2021/10/31 00:15:53;;;;;;;5.93;2.55;;;;;;;14.23;95.21;99877.91;5110589;28;20034;-68
2021/10/31 00:18:19;;;;;;;4.60;2.30;;;;;;;14.21;95.34;99877.53;5104149;28;20043;-68
2021/10/31 00:20:44;;;;;;;5.22;2.30;;;;;;;14.28;94.67;99882.97;5103237;28;20055;-68
2021/10/31 00:23:10;;;;;;;9.45;2.67;;;;;;;14.24;94.89;99884.91;5112602;28;20027;-69
2021/10/31 00:25:35;;;;;;;4.97;2.30;;;;;;;14.22;95.57;99879.09;5106976;28;20036;-68
2021/10/31 00:28:01;;;;;;;5.45;2.08;;;;;;;14.21;95.64;99882.19;5110727;28;20027;-69
2021/10/31 00:30:27;;;;;;;5.75;3.05;;;;;;;14.24;95.94;99881.41;5104443;28;20023;-68
2021/10/31 00:32:53;;;;;;;8.02;2.80;;;;;;;14.26;95.82;99885.25;5110746;28;20042;-68
2021/10/31 00:35:18;;;;;;;5.15;2.40;;;;;;;14.20;96.44;99886.84;5103237;28;20031;-68
2021/10/31 00:37:44;;;;;;;4.70;2.35;;;;;;;14.25;95.80;99885.63;5111329;28;20100;-68
2021/10/31 00:40:10;;;;;;;6.65;2.17;;;;;;;14.25;96.19;99897.25;5109468;28;20040;-69
2021/10/31 00:42:36;;;;;;;5.88;2.05;;;;;;;14.19;96.73;99896.13;5106439;28;20063;-69
2021/10/31 00:45:04;;;;;;;5.18;2.03;;;;;;;14.24;96.35;99898.44;5109909;28;20078;-68
2021/10/31 00:47:29;;;;;;;5.63;2.35;;;;;;;14.29;96.88;99908.09;5093592;28;20371;-68
2021/10/31 00:49:55;;;;;;;5.28;2.40;;;;;;;14.24;97.56;99903.84;5106635;28;20078;-68
2021/10/31 00:52:21;;;;;;;4.82;2.17;;;;;;;14.17;98.41;99901.16;5110072;28;20121;-69
2021/10/31 00:54:48;;;;;;;6.35;2.53;;;;;;;14.19;98.57;99906.97;5104490;28;20088;-68
2021/10/31 00:57:14;;;;;;;6.30;2.45;;;;;;;14.21;98.63;99910.03;5106124;28;20028;-68
2021/10/31 00:59:40;;;;;;;6.53;2.47;;;;;;;14.17;99.21;99916.66;5109715;28;20027;-69
2021/10/31 01:02:10;;;;;;;5.65;2.20;;;;;;;14.17;100.00;99913.94;5097498;28;20035;-69
2021/10/31 01:04:36;;;;;;;6.90;2.67;;;;;;;14.08;100.00;99905.50;5108563;28;20402;-67
2021/10/31 01:07:06;;;;;;;5.50;2.88;;;;;;;14.16;100.00;99907.00;5104184;28;20032;-67
2021/10/31 01:09:57;;;;;;;6.35;2.97;;;;;;;14.22;100.00;99908.13;5097319;28;20023;-68
2021/10/31 01:13:16;;;;;;;5.83;2.33;;;;;;;14.13;100.00;99903.13;5104177;28;20035;-68
2021/10/31 01:16:03;;;;;;;4.15;2.05;;;;;;;14.13;100.00;99908.53;5008809;28;20390;-68
2021/10/31 01:18:31;;;;;;;6.78;3.25;;;;;;;14.16;100.00;99904.28;5099049;28;20082;-69
2021/10/31 01:21:18;;;;;;;5.40;2.20;;;;;;;14.19;100.00;99906.97;5105600;28;20039;-67
2021/10/31 01:24:09;;;;;;;5.47;2.63;;;;;;;14.18;100.00;99921.69;5111114;28;20033;-67
2021/10/31 01:26:54;;;;;;;6.30;3.10;;;;;;;14.23;100.00;99915.84;5104460;28;20039;-67
2021/10/31 01:29:39;;;;;;;5.07;2.13;;;;;;;14.19;100.00;99917.03;5104372;28;20080;-68
2021/10/31 01:32:04;;;;;;;6.10;2.33;;;;;;;14.21;100.00;99920.88;5106770;28;20026;-67
2021/10/31 01:35:00;;;;;;;3.85;2.20;;;;;;;14.18;100.00;99927.09;5110565;28;20067;-67
2021/10/31 01:38:02;;;;;;;5.72;2.67;;;;;;;14.15;100.00;99914.34;5096694;28;20067;-67
2021/10/31 01:40:44;;;;;;;7.07;2.58;;;;;;;14.19;100.00;99928.63;5100546;28;20076;-68
2021/10/31 01:43:28;;;;;;;6.47;2.72;;;;;;;14.14;100.00;99920.16;5104001;28;20044;-68
2021/10/31 01:45:56;;;;;;;4.97;2.58;;;;;;;14.10;100.00;99935.66;5108663;28;20043;-67
2021/10/31 01:48:25;;;;;;;7.00;2.60;;;;;;;14.14;100.00;99937.19;5107390;27;20039;-67
2021/10/31 01:50:57;;;;;;;8.38;2.92;;;;;;;14.17;100.00;99930.19;5108244;28;20027;-67
2021/10/31 01:53:32;;;;;;;8.25;3.05;;;;;;;14.07;100.00;99931.03;5108333;28;20378;-68
2021/10/31 01:56:14;;;;;;;6.55;2.88;;;;;;;14.11;100.00;99920.97;5106281;28;20468;-67
2021/10/31 01:58:45;;;;;;;6.43;2.53;;;;;;;14.13;100.00;99919.38;5102168;28;20109;-68
2021/10/31 02:01:15;;;;;;;5.18;2.60;;;;;;;14.07;100.00;99937.19;5099273;28;20028;-68
2021/10/31 02:03:41;;;;;;;8.98;2.90;;;;;;;14.09;100.00;99934.88;5100594;28;20066;-68
2021/10/31 02:06:09;;;;;;;5.18;2.60;;;;;;;14.15;100.00;99935.25;5106245;28;20047;-67
2021/10/31 02:08:37;;;;;;;5.68;3.00;;;;;;;14.12;100.00;99936.03;5110177;28;20043;-67
2021/10/31 02:11:04;;;;;;;6.85;3.03;;;;;;;14.17;100.00;99941.00;5107311;28;20059;-68
2021/10/31 02:13:32;;;;;;;7.07;2.30;;;;;;;14.06;100.00;99935.69;5110310;28;20114;-67
2021/10/31 02:15:58;;;;;;;5.60;2.75;;;;;;;14.11;100.00;99937.22;5092032;28;20042;-67
2021/10/31 02:18:26;;;;;;;4.82;2.03;;;;;;;14.12;100.00;99946.84;5105821;28;20072;-68
2021/10/31 02:20:56;;;;;;;4.70;2.33;;;;;;;14.09;100.00;99951.13;5107601;28;20032;-67
2021/10/31 02:23:23;;;;;;;6.05;2.88;;;;;;;14.12;100.00;99949.56;5110538;28;20089;-68
2021/10/31 02:25:49;;;;;;;7.15;3.00;;;;;;;14.07;100.00;99964.28;5110476;28;20036;-67
2021/10/31 02:28:15;;;;;;;7.25;3.03;;;;;;;14.08;100.00;99963.13;5107506;28;20043;-67
2021/10/31 02:30:41;;;;;;;5.43;2.60;;;;;;;14.08;100.00;99955.00;5102364;28;20024;-67
2021/10/31 02:33:06;;;;;;;4.80;2.75;;;;;;;14.03;100.00;99962.78;5107392;28;20108;-67
2021/10/31 02:35:32;;;;;;;5.65;2.30;;;;;;;14.06;100.00;99953.84;5104006;28;20039;-68
2021/10/31 02:37:57;;;;;;;5.65;2.55;;;;;;;14.06;100.00;99957.34;5114257;28;20210;-67
2021/10/31 02:40:23;;;;;;;6.82;2.85;;;;;;;14.02;100.00;99958.50;5105751;28;20074;-67
2021/10/31 02:42:50;;;;;;;5.82;2.95;;;;;;;14.04;100.00;99969.72;5109590;28;20043;-67
2021/10/31 02:45:16;;;;;;;6.50;3.15;;;;;;;14.01;100.00;99981.34;5104552;28;20024;-67
2021/10/31 02:48:00;;;;;;;6.90;3.40;;;;;;;14.04;100.00;99972.44;5078596;28;20122;-68
2021/10/31 02:50:33;;;;;;;9.00;3.28;;;;;;;14.06;100.00;99970.09;5108514;28;20034;-67
2021/10/31 02:53:23;;;;;;;6.88;3.22;;;;;;;13.99;100.00;99979.03;5094319;28;20040;-68
2021/10/31 02:55:54;;;;;;;8.63;3.65;;;;;;;14.03;100.00;99976.31;5103224;28;20035;-68
2021/10/31 02:58:46;;;;;;;6.03;2.88;;;;;;;14.02;100.00;99962.00;5101581;28;20035;-68
2021/10/31 03:01:13;;;;;;;9.57;3.35;;;;;;;14.06;100.00;99970.09;5099902;28;20043;-67
2021/10/31 03:03:39;;;;;;;8.55;3.20;;;;;;;14.07;100.00;99974.38;5104069;28;20100;-68
2021/10/31 03:06:05;;;;;;;6.88;3.00;;;;;;;14.09;100.00;99978.19;5108000;28;20107;-67
2021/10/31 03:08:31;;;;;;;9.18;3.97;;;;;;;14.08;100.00;99979.38;5104874;28;20106;-67
2021/10/31 03:11:00;;;;;;;9.50;4.43;;;;;;;14.11;100.00;99984.00;5107022;28;20028;-67
2021/10/31 03:13:27;;;;;;;9.13;3.65;;;;;;;14.02;100.00;99983.66;5109994;28;20035;-67
2021/10/31 03:15:53;;;;;;;7.30;3.38;;;;;;;14.02;100.00;99994.50;5098591;28;20034;-68
2021/10/31 03:18:19;;;;;;;7.20;3.55;;;;;;;14.04;100.00;99985.97;5095688;28;20036;-68
2021/10/31 03:20:45;;;;;;;7.90;3.67;;;;;;;14.03;100.00;100000.69;5095526;28;20028;-68
2021/10/31 03:23:10;;;;;;;6.68;3.40;;;;;;;14.05;100.00;99990.97;5106357;28;20487;-68
2021/10/31 03:25:36;;;;;;;7.32;3.28;;;;;;;14.09;100.00;99990.97;5095701;28;20131;-68
2021/10/31 03:28:02;;;;;;;10.35;3.83;;;;;;;14.06;100.00;99992.53;5101709;28;20032;-68
2021/10/31 03:30:28;;;;;;;10.32;3.47;;;;;;;14.06;100.00;99999.88;5103042;28;20032;-68
2021/10/31 03:32:54;;;;;;;6.50;3.40;;;;;;;14.06;100.00;100010.72;5093112;28;20027;-67
2021/10/31 03:35:19;;;;;;;9.70;3.55;;;;;;;14.05;100.00;100011.88;5096893;28;20396;-68
2021/10/31 03:37:45;;;;;;;6.13;3.72;;;;;;;14.00;100.00;100007.66;5105978;28;20479;-67
2021/10/31 03:40:10;;;;;;;11.00;4.10;;;;;;;14.06;100.00;100003.38;5099942;28;20024;-67
2021/10/31 03:42:36;;;;;;;7.13;3.50;;;;;;;14.03;100.00;100009.56;5107045;28;20028;-68
2021/10/31 03:45:05;;;;;;;8.10;4.22;;;;;;;14.02;100.00;100001.81;5110003;28;20054;-68
2021/10/31 03:47:33;;;;;;;8.93;3.40;;;;;;;14.07;100.00;100018.44;5112940;28;20471;-69
2021/10/31 03:49:58;;;;;;;6.47;3.42;;;;;;;14.12;100.00;100018.03;5112025;28;20117;-68
2021/10/31 03:52:24;;;;;;;8.05;3.33;;;;;;;14.11;100.00;100030.03;5104906;28;20031;-68
2021/10/31 03:54:49;;;;;;;9.52;4.20;;;;;;;14.10;100.00;100031.19;5112887;28;20068;-69
2021/10/31 03:57:15;;;;;;;7.28;3.30;;;;;;;14.14;100.00;100040.09;5107843;28;20024;-69
2021/10/31 03:59:40;;;;;;;8.98;3.35;;;;;;;14.13;100.00;100043.19;5107433;28;20038;-68
2021/10/31 04:02:06;;;;;;;6.80;3.13;;;;;;;14.14;100.00;100042.78;5105922;28;20422;-69
2021/10/31 04:04:31;;;;;;;7.25;3.67;;;;;;;14.14;100.00;100053.63;5111098;28;20031;-68
2021/10/31 04:06:57;;;;;;;7.63;3.42;;;;;;;14.04;100.00;100046.31;5112488;28;20027;-69
2021/10/31 04:09:22;;;;;;;8.07;3.80;;;;;;;14.02;100.00;100059.47;5107782;28;20543;-69
2021/10/31 04:11:48;;;;;;;9.38;3.47;;;;;;;14.03;100.00;100055.59;5108503;28;20043;-69
2021/10/31 04:14:13;;;;;;;7.82;3.80;;;;;;;14.03;100.00;100049.41;5105162;28;20071;-69
2021/10/31 04:16:39;;;;;;;9.55;3.50;;;;;;;14.05;100.00;100061.38;5106921;28;20043;-68
2021/10/31 04:19:05;;;;;;;8.25;3.42;;;;;;;14.04;100.00;100050.94;5108656;28;20111;-68
2021/10/31 04:21:31;;;;;;;9.82;3.83;;;;;;;14.01;100.00;100057.94;5102617;28;20039;-68
2021/10/31 04:23:56;;;;;;;10.40;3.92;;;;;;;14.02;100.00;100053.28;5110443;28;20027;-68
2021/10/31 04:26:22;;;;;;;7.30;3.15;;;;;;;14.04;100.00;100054.44;5103551;28;20032;-68
2021/10/31 04:28:47;;;;;;;8.18;3.47;;;;;;;14.04;100.00;100048.25;5105741;28;20035;-68
2021/10/31 04:31:13;;;;;;;7.25;3.10;;;;;;;14.00;100.00;100042.84;5103198;28;20477;-68
2021/10/31 04:33:38;;;;;;;9.50;3.22;;;;;;;14.01;100.00;100047.09;5107263;28;20051;-68
2021/10/31 04:36:05;;;;;;;9.98;3.78;;;;;;;13.99;100.00;100043.25;5110707;28;20559;-68
2021/10/31 04:38:32;;;;;;;7.88;3.38;;;;;;;13.93;100.00;100051.00;5099556;28;20023;-68
2021/10/31 04:40:58;;;;;;;7.70;3.50;;;;;;;13.87;100.00;100051.78;5104599;28;20074;-69
2021/10/31 04:43:25;;;;;;;8.07;3.58;;;;;;;13.78;100.00;100057.59;5108524;28;20036;-68
2021/10/31 04:45:52;;;;;;;8.18;3.33;;;;;;;13.69;100.00;100053.75;5111443;28;20039;-68
2021/10/31 04:48:19;;;;;;;11.52;3.95;;;;;;;13.68;100.00;100061.13;5096984;28;20666;-68
2021/10/31 04:50:44;;;;;;;8.20;3.15;;;;;;;13.69;100.00;100057.22;5100700;28;20043;-68
2021/10/31 04:53:10;;;;;;;5.45;2.88;;;;;;;13.64;100.00;100063.06;5110991;28;20023;-69
2021/10/31 04:55:40;;;;;;;7.15;3.22;;;;;;;13.57;100.00;100060.34;5103941;28;20084;-69
2021/10/31 04:58:06;;;;;;;8.00;3.50;;;;;;;13.51;100.00;100059.22;5089599;28;20147;-69
2021/10/31 05:00:32;;;;;;;6.80;3.15;;;;;;;13.52;100.00;100068.88;5103494;28;20127;-68
2021/10/31 05:02:58;;;;;;;7.82;3.22;;;;;;;13.45;100.00;100066.19;5086663;28;20035;-68
2021/10/31 05:05:23;;;;;;;6.78;2.83;;;;;;;13.45;100.00;100060.75;5110287;28;20042;-68
2021/10/31 05:07:51;;;;;;;7.18;3.40;;;;;;;13.39;100.00;100071.19;5107769;28;20039;-68
2021/10/31 05:10:16;;;;;;;7.00;3.33;;;;;;;13.36;100.00;100071.19;5106085;28;20497;-68
2021/10/31 05:12:43;;;;;;;7.50;3.25;;;;;;;13.37;100.00;100070.03;5109452;28;20072;-68
2021/10/31 05:15:09;;;;;;;9.73;3.55;;;;;;;13.38;100.00;100063.47;5097190;28;20057;-68
2021/10/31 05:17:35;;;;;;;6.05;3.05;;;;;;;13.26;100.00;100083.56;5107394;28;20036;-68
2021/10/31 05:20:01;;;;;;;4.57;2.75;;;;;;;13.26;100.00;100082.78;5109273;28;20460;-68
2021/10/31 05:22:26;;;;;;;7.50;3.72;;;;;;;13.23;100.00;100081.63;5111228;28;20016;-68
2021/10/31 05:24:52;;;;;;;7.68;3.45;;;;;;;13.17;100.00;100085.09;5104046;28;20043;-68
2021/10/31 05:27:18;;;;;;;9.60;3.30;;;;;;;13.20;100.00;100084.34;5103124;28;20042;-69
2021/10/31 05:29:43;;;;;;;7.95;3.72;;;;;;;13.19;100.00;100083.56;5107019;28;20031;-68
2021/10/31 05:32:09;;;;;;;7.93;3.00;;;;;;;13.21;100.00;100080.47;5109454;28;20373;-68
2021/10/31 05:34:34;;;;;;;8.40;2.65;;;;;;;13.17;100.00;100082.41;5103907;28;20036;-68
2021/10/31 05:37:00;;;;;;;5.53;2.42;;;;;;;13.18;100.00;100082.00;5110549;28;20062;-68
2021/10/31 05:39:25;;;;;;;6.88;3.42;;;;;;;13.16;100.00;100083.56;5107221;28;20076;-68
2021/10/31 05:41:51;;;;;;;5.30;3.00;;;;;;;13.15;100.00;100088.19;5099827;28;20047;-69
2021/10/31 05:44:16;;;;;;;7.30;3.53;;;;;;;13.14;100.00;100091.28;5101474;28;20038;-69
2021/10/31 05:46:42;;;;;;;8.77;3.35;;;;;;;13.07;100.00;100097.44;5109553;28;20039;-68
2021/10/31 05:49:08;;;;;;;6.60;3.45;;;;;;;13.05;100.00;100097.06;5109574;28;20028;-68
2021/10/31 05:51:34;;;;;;;7.95;3.45;;;;;;;13.08;100.00;100092.81;5097811;28;20605;-68
2021/10/31 05:54:00;;;;;;;8.85;3.20;;;;;;;13.06;100.00;100087.81;5101106;28;20055;-68
2021/10/31 05:56:26;;;;;;;5.85;2.65;;;;;;;13.05;100.00;100083.56;5097576;28;20157;-68
2021/10/31 05:58:51;;;;;;;9.70;3.28;;;;;;;13.00;100.00;100085.84;5099488;28;20121;-68
2021/10/31 06:01:17;;;;;;;7.70;3.35;;;;;;;12.99;100.00;100079.66;5105709;28;20059;-69
2021/10/31 06:03:43;;;;;;;5.05;2.97;;;;;;;12.94;100.00;100082.75;5107967;28;20039;-68
2021/10/31 06:06:08;;;;;;;8.32;3.10;;;;;;;12.88;100.00;100099.72;5106759;28;20027;-69
2021/10/31 06:08:34;;;;;;;8.13;2.78;;;;;;;12.86;100.00;100096.63;5105415;28;20077;-69
2021/10/31 06:10:59;;;;;;;7.13;3.45;;;;;;;12.79;100.00;100096.63;5106528;28;20102;-69
2021/10/31 06:13:25;;;;;;;5.43;2.72;;;;;;;12.78;100.00;100095.81;5087203;28;20055;-69
2021/10/31 06:15:51;;;;;;;7.75;3.22;;;;;;;12.73;100.00;100098.13;5103954;28;20131;-69
2021/10/31 06:18:19;;;;;;;6.82;3.20;;;;;;;12.66;100.00;100093.47;5104790;28;20127;-69
2021/10/31 06:20:46;;;;;;;10.27;3.13;;;;;;;12.64;100.00;100091.16;5093079;28;20039;-69
2021/10/31 06:23:14;;;;;;;4.63;2.38;;;;;;;12.58;100.00;100095.38;5101591;28;20066;-68
2021/10/31 06:25:40;;;;;;;5.80;2.55;;;;;;;12.59;100.00;100094.25;5083606;28;20067;-69
2021/10/31 06:28:06;;;;;;;8.25;2.78;;;;;;;12.53;100.00;100095.78;5107033;28;20030;-69
2021/10/31 06:30:32;;;;;;;6.35;2.70;;;;;;;12.53;100.00;100097.69;5106090;28;20452;-68
2021/10/31 06:32:57;;;;;;;7.47;3.17;;;;;;;12.48;100.00;100104.25;5104954;28;20032;-69
2021/10/31 06:35:23;;;;;;;5.07;2.38;;;;;;;12.48;100.00;100106.19;5101950;28;20031;-69
2021/10/31 06:37:49;;;;;;;8.63;3.67;;;;;;;12.49;100.00;100103.09;5108294;28;20063;-69
2021/10/31 06:40:16;;;;;;;4.78;2.67;;;;;;;12.54;100.00;100108.09;5106025;28;20039;-68
2021/10/31 06:42:41;;;;;;;7.10;2.60;;;;;;;12.57;100.00;100095.78;5103483;28;20036;-69
2021/10/31 06:45:08;;;;;;;4.47;2.45;;;;;;;12.57;100.00;100104.66;5098412;28;20066;-69
2021/10/31 06:47:33;;;;;;;6.13;3.00;;;;;;;12.58;100.00;100100.78;5105910;28;20122;-69
2021/10/31 06:50:00;;;;;;;5.38;3.00;;;;;;;12.64;100.00;100104.66;5104394;28;20162;-68
2021/10/31 06:52:26;;;;;;;6.75;2.40;;;;;;;12.64;100.00;100101.97;5105093;28;20038;-69
2021/10/31 06:54:51;;;;;;;8.27;3.03;;;;;;;12.73;100.00;100103.53;5082605;28;20036;-68
2021/10/31 06:57:17;;;;;;;7.70;3.50;;;;;;;12.70;100.00;100119.34;5103971;28;20032;-69
2021/10/31 06:59:43;;;;;;;7.85;3.08;;;;;;;12.70;100.00;100121.28;5086021;28;20045;-69
2021/10/31 07:02:08;;;;;;;5.95;2.45;;;;;;;12.70;100.00;100115.88;5106048;28;20116;-69
2021/10/31 07:04:34;;;;;;;6.70;3.10;;;;;;;12.72;100.00;100110.13;5109206;28;20060;-69
2021/10/31 07:07:00;;;;;;;6.32;2.95;;;;;;;12.76;100.00;100114.34;5105547;28;20039;-69
2021/10/31 07:09:26;;;;;;;8.48;2.70;;;;;;;12.80;100.00;100120.53;5109157;28;20036;-69
2021/10/31 07:11:51;;;;;;;7.88;3.10;;;;;;;12.78;100.00;100119.38;5111592;28;20465;-69
2021/10/31 07:14:17;;;;;;;5.18;2.63;;;;;;;12.82;100.00;100125.56;5104857;28;20034;-69
2021/10/31 07:16:42;;;;;;;6.55;3.05;;;;;;;12.87;100.00;100115.16;5110784;28;20035;-69
2021/10/31 07:19:08;;;;;;;5.43;2.67;;;;;;;12.90;100.00;100127.13;5102501;28;20678;-69
2021/10/31 07:21:33;;;;;;;4.80;2.38;;;;;;;12.93;100.00;100129.06;5105706;28;20714;-69
2021/10/31 07:23:59;;;;;;;6.80;2.85;;;;;;;12.95;100.00;100134.88;5105578;28;20069;-69
2021/10/31 07:26:24;;;;;;;4.38;2.55;;;;;;;12.97;100.00;100124.47;5110963;28;20046;-69
2021/10/31 07:28:50;;;;;;;7.90;2.88;;;;;;;12.99;100.00;100139.13;5110233;28;20030;-69
2021/10/31 07:31:16;;;;;;;4.50;2.33;;;;;;;13.03;100.00;100139.13;5104951;28;20047;-69
2021/10/31 07:33:43;;;;;;;5.43;2.55;;;;;;;13.02;100.00;100145.69;5105488;28;20413;-69
2021/10/31 07:36:08;;;;;;;6.95;3.25;;;;;;;13.03;100.00;100147.22;5105151;28;20039;-69
2021/10/31 07:38:35;;;;;;;6.55;2.60;;;;;;;13.07;100.00;100142.63;5107429;28;20110;-69
2021/10/31 07:41:01;;;;;;;6.32;2.63;;;;;;;13.11;100.00;100135.31;5103389;28;20076;-69
2021/10/31 07:43:27;;;;;;;7.07;3.00;;;;;;;13.11;100.00;100138.00;5108513;28;20036;-69
2021/10/31 07:45:53;;;;;;;7.82;3.42;;;;;;;13.15;100.00;100136.09;5106344;28;20027;-69
2021/10/31 07:48:18;;;;;;;8.02;3.45;;;;;;;13.18;100.00;100132.63;5101931;28;20036;-69
2021/10/31 07:50:44;;;;;;;8.35;3.13;;;;;;;13.12;100.00;100137.66;5103830;28;20040;-69
2021/10/31 07:53:11;;;;;;;5.30;2.78;;;;;;;13.17;100.00;100131.06;5108099;28;20107;-69
2021/10/31 07:55:39;;;;;;;5.72;2.90;;;;;;;13.22;100.00;100120.63;5101030;28;20504;-69
2021/10/31 07:58:06;;;;;;;4.65;3.15;;;;;;;13.28;100.00;100113.69;5106108;28;20039;-69
2021/10/31 08:00:34;;;;;;;5.85;2.85;;;;;;;13.37;100.00;100129.53;5106285;28;20084;-69
2021/10/31 08:02:59;;;;;;;9.82;2.63;;;;;;;13.41;100.00;100131.06;5108470;28;20028;-69
2021/10/31 08:05:26;;;;;;;7.43;2.78;;;;;;;13.48;100.00;100133.00;5107336;28;20028;-69
2021/10/31 08:07:52;;;;;;;6.85;3.35;;;;;;;13.50;100.00;100145.00;5101541;28;20122;-69
2021/10/31 08:10:19;;;;;;;5.35;2.72;;;;;;;13.65;100.00;100147.69;5096825;28;20479;-69
2021/10/31 08:12:45;;;;;;;9.00;2.78;;;;;;;13.81;100.00;100143.44;5104800;28;20067;-69
2021/10/31 08:15:10;;;;;;;6.32;3.15;;;;;;;13.79;100.00;100134.94;5087885;28;20099;-69
2021/10/31 08:17:36;;;;;;;5.53;2.88;;;;;;;13.88;100.00;100129.13;5108612;28;20513;-69
2021/10/31 08:20:02;;;;;;;9.27;3.70;;;;;;;13.98;100.00;100142.63;5106615;28;20051;-69
2021/10/31 08:22:28;;;;;;;7.53;3.33;;;;;;;13.91;100.00;100145.38;5104471;28;20050;-69
2021/10/31 08:24:53;;;;;;;6.55;3.40;;;;;;;13.96;100.00;100136.06;5108324;28;20040;-69
2021/10/31 08:27:19;;;;;;;6.45;3.03;;;;;;;14.03;100.00;100134.09;5106982;28;20039;-69
2021/10/31 08:29:46;;;;;;;10.25;4.53;;;;;;;14.11;100.00;100143.75;5102770;28;20023;-69
2021/10/31 08:32:13;;;;;;;7.38;3.13;;;;;;;14.10;100.00;100136.03;5102031;28;20024;-69
2021/10/31 08:34:38;;;;;;;6.22;2.80;;;;;;;14.08;100.00;100122.88;5108574;28;20036;-69
2021/10/31 08:37:04;;;;;;;6.63;3.30;;;;;;;14.11;100.00;100137.59;5108060;28;20445;-69
2021/10/31 08:39:30;;;;;;;8.23;2.97;;;;;;;14.07;100.00;100129.44;5110370;28;20047;-68
2021/10/31 08:41:56;;;;;;;6.90;3.10;;;;;;;14.13;100.00;100119.78;5103477;28;20421;-69
2021/10/31 08:44:22;;;;;;;6.90;3.30;;;;;;;14.14;100.00;100115.91;5103956;28;20023;-69
2021/10/31 08:46:48;;;;;;;6.13;3.28;;;;;;;14.20;100.00;100105.44;5105165;28;20039;-69
2021/10/31 08:49:13;;;;;;;10.02;2.97;;;;;;;14.21;100.00;100107.75;5105231;28;20040;-69
2021/10/31 08:51:39;;;;;;;6.28;2.55;;;;;;;14.31;100.00;100106.19;5102250;28;20179;-68
2021/10/31 08:54:04;;;;;;;5.93;3.22;;;;;;;14.35;100.00;100104.25;5111428;28;20035;-69
2021/10/31 08:56:34;;;;;;;6.00;3.08;;;;;;;14.40;100.00;100099.19;5109743;28;20023;-69
2021/10/31 08:59:00;;;;;;;6.15;2.80;;;;;;;14.34;100.00;100098.06;5108147;28;20027;-69
2021/10/31 09:01:30;;;;;;;6.78;2.97;;;;;;;14.34;100.00;100102.72;5102981;28;20049;-69
2021/10/31 09:03:56;;;;;;;7.50;3.38;;;;;;;14.41;100.00;100095.34;5100773;28;20043;-68
2021/10/31 09:06:26;;;;;;;13.82;3.63;;;;;;;14.42;100.00;100096.09;5107085;28;20073;-69
2021/10/31 09:08:52;;;;;;;9.63;3.88;;;;;;;14.51;100.00;100101.88;5110365;28;20051;-69
2021/10/31 09:11:17;;;;;;;7.93;3.40;;;;;;;14.60;100.00;100093.28;5110555;28;20063;-68
2021/10/31 09:13:43;;;;;;;8.80;3.05;;;;;;;14.64;100.00;100092.13;5107167;28;20826;-68
2021/10/31 09:16:08;;;;;;;6.40;3.30;;;;;;;14.64;100.00;100083.22;5103191;28;20027;-68
2021/10/31 09:18:35;;;;;;;9.57;3.28;;;;;;;14.68;100.00;100086.66;5099084;22;20503;-66
2021/10/31 09:21:02;;;;;;;7.32;3.35;;;;;;;14.73;100.00;100091.69;5066754;28;20028;-66
2021/10/31 09:23:28;;;;;;;5.88;3.15;;;;;;;14.78;99.54;100085.84;5066508;28;20086;-66
2021/10/31 09:25:54;;;;;;;8.38;3.50;;;;;;;14.80;99.54;100088.94;5080190;28;20032;-64
2021/10/31 09:28:19;;;;;;;7.15;2.83;;;;;;;14.84;99.83;100089.69;5071772;28;20502;-66
2021/10/31 09:30:45;;;;;;;11.05;3.70;;;;;;;14.96;99.00;100092.69;5066274;28;20044;-64
2021/10/31 09:33:12;;;;;;;10.65;3.65;;;;;;;15.06;97.89;100097.28;5067063;28;20037;-64
2021/10/31 09:38:38;;;;;;;6.43;3.00;;;;;;;14.98;99.61;100076.78;5036591;28;20064;-65
2021/10/31 09:41:03;;;;;;;9.45;3.67;;;;;;;15.12;98.69;100071.28;5067653;28;20043;-63
2021/10/31 09:43:35;;;;;;;7.70;3.33;;;;;;;15.19;96.80;100073.16;5070342;28;20115;-64
2021/10/31 09:46:01;;;;;;;7.32;3.50;;;;;;;15.18;96.72;100072.38;5064962;28;20046;-64
2021/10/31 09:48:33;;;;;;;7.50;3.42;;;;;;;15.15;97.19;100080.56;5068702;28;20279;-64
2021/10/31 09:51:00;;;;;;;7.63;3.13;;;;;;;15.12;96.69;100078.63;5068784;28;20040;-63
2021/10/31 09:53:26;;;;;;;8.65;3.60;;;;;;;15.02;97.43;100082.22;5074627;28;20039;-64
2021/10/31 09:55:53;;;;;;;8.00;3.40;;;;;;;15.01;98.11;100072.53;5068631;28;20032;-64
2021/10/31 09:58:22;;;;;;;9.75;3.67;;;;;;;15.04;97.91;100069.03;5071274;28;20044;-64
2021/10/31 10:00:52;;;;;;;9.80;3.40;;;;;;;15.06;98.14;100062.00;5065490;28;20037;-64
2021/10/31 10:03:25;;;;;;;7.65;3.33;;;;;;;15.16;97.61;100063.88;5059861;28;20037;-65
2021/10/31 10:06:21;;;;;;;6.05;3.15;;;;;;;15.14;97.99;100062.72;5053400;28;20166;-65
2021/10/31 10:09:07;;;;;;;8.77;3.53;;;;;;;15.21;97.00;100051.84;5058346;28;20032;-64
2021/10/31 10:11:41;;;;;;;7.18;3.30;;;;;;;15.27;97.67;100051.00;5054383;28;20071;-64
2021/10/31 10:14:24;;;;;;;6.35;3.45;;;;;;;15.27;97.62;100058.38;5060556;28;20020;-64
2021/10/31 10:17:01;;;;;;;7.30;2.95;;;;;;;15.33;97.60;100056.75;5065715;28;20119;-64
2021/10/31 10:19:30;;;;;;;6.50;3.05;;;;;;;15.51;96.23;100068.25;5082267;28;20028;-63
2021/10/31 10:22:08;;;;;;;5.20;2.95;;;;;;;15.52;96.21;100083.38;5080447;28;20032;-64
2021/10/31 10:24:36;;;;;;;6.22;3.47;;;;;;;15.55;96.21;100074.41;5082104;28;20045;-64
2021/10/31 10:27:05;;;;;;;6.03;2.85;;;;;;;15.60;95.92;100060.41;5075381;28;20103;-64
2021/10/31 10:29:40;;;;;;;5.78;2.75;;;;;;;15.63;96.30;100056.91;5062125;28;20039;-64
2021/10/31 10:32:08;;;;;;;6.55;2.92;;;;;;;15.67;95.25;100057.63;5078754;28;20028;-64
2021/10/31 10:34:41;;;;;;;7.22;3.00;;;;;;;15.75;95.10;100069.19;5079931;28;20077;-64
2021/10/31 10:37:12;;;;;;;6.03;3.05;;;;;;;15.88;94.69;100071.00;5080218;28;20040;-64
2021/10/31 10:39:40;;;;;;;7.00;3.05;;;;;;;15.89;94.86;100069.78;5092586;28;20032;-64
2021/10/31 10:42:06;;;;;;;6.53;3.22;;;;;;;15.97;94.39;100070.50;5083450;28;20109;-64
2021/10/31 10:44:38;;;;;;;5.63;2.78;;;;;;;16.01;93.75;100072.00;5090540;28;20024;-64
2021/10/31 10:47:08;;;;;;;7.07;3.17;;;;;;;15.96;93.79;100074.41;5083974;28;20040;-65
2021/10/31 10:49:37;;;;;;;7.32;2.67;;;;;;;16.05;93.97;100063.81;5088266;28;20040;-65
2021/10/31 10:52:23;;;;;;;5.72;2.95;;;;;;;16.04;93.26;100063.06;5084973;28;20016;-64
2021/10/31 10:54:56;;;;;;;6.68;3.03;;;;;;;16.04;92.65;100046.75;5089911;28;20043;-65
2021/10/31 10:57:23;;;;;;;5.65;2.75;;;;;;;15.97;93.20;100046.81;5083734;28;20039;-65
2021/10/31 11:00:10;;;;;;;4.63;2.35;;;;;;;16.01;93.17;100038.63;5084680;28;20088;-65
2021/10/31 11:02:37;;;;;;;5.75;2.58;;;;;;;16.04;94.00;100030.47;5076884;28;20040;-64
2021/10/31 11:05:06;;;;;;;6.97;2.97;;;;;;;16.14;93.34;100026.81;5090023;28;20485;-64
2021/10/31 11:07:32;;;;;;;4.97;2.63;;;;;;;16.14;93.18;100017.91;5080253;28;20036;-64
2021/10/31 11:09:57;;;;;;;6.13;2.90;;;;;;;16.23;92.48;100018.97;5085983;28;20082;-64
2021/10/31 11:12:33;;;;;;;6.07;2.75;;;;;;;16.18;92.60;100005.81;5086195;28;20172;-65
2021/10/31 11:15:02;;;;;;;4.88;2.28;;;;;;;16.30;91.73;100003.75;5082136;28;20036;-65
2021/10/31 11:17:28;;;;;;;5.80;2.78;;;;;;;16.28;91.48;100004.91;5088054;28;20028;-65
2021/10/31 11:19:54;;;;;;;5.43;2.88;;;;;;;16.32;91.23;100004.09;5093140;28;20042;-65
2021/10/31 11:22:22;;;;;;;4.35;2.28;;;;;;;16.44;91.24;100003.53;5088342;28;20037;-65
2021/10/31 11:24:49;;;;;;;5.25;2.70;;;;;;;16.49;90.33;99994.97;5096155;28;20406;-64
2021/10/31 11:27:21;;;;;;;5.88;2.03;;;;;;;16.50;89.89;99999.97;5091930;28;20036;-64
2021/10/31 11:29:47;;;;;;;;;;;;;;;16.42;89.94;99997.72;5094096;28;20078;-65